Redby, Minnesota
Current Conditions -  °F | °C
As of 2:31 AM on Sunday 23 Nov 2014 (Local Time) from KVWU Reporting Station
Haze Haze  
Wind Chill: 29°   Ceiling: 600
Heat Index: 34°   Visibility: 4mi
Dew Point: 32°   Wind: 6mph
Humidity: 93%   Direction: 150°SSE
Pressure: 29.4"   Gusts: NA
Location:  47.88°N, 94.91°W
Report Text: KVWU 230831Z AUTO 15005KT 4SM BR OVC006 01/00 A2940 RMK AO2
Loading
Personal Weather Stations






























Interactive Weather Map New forecast layout! Learn more

10-Day Weather Forecast

Advertisements
Track Severe Weather on mobile